Owls Head, Maine
Current Conditions -  °F | °C
As of 1:15 AM on Thursday 29 Jan 2015 (Local Time) from KRKD Reporting Station
Clear Clear  
Wind Chill:   Ceiling: Unl
Heat Index: 12°   Visibility: 10mi
Dew Point:   Wind: 7mph
Humidity: 79%   Direction: 270°W
Pressure: 30.21"   Gusts: NA
Location:  44.08°N, 69.06°W
Report Text: KRKD 290615Z AUTO 27006KT 10SM CLR M11/M14 A3021 RMK AO1
Loading
Personal Weather Stations






























Interactive Weather Map New forecast layout! Learn more

10-Day Weather Forecast

Advertisements
Track Severe Weather on mobile